Anatone, Washington
Current Conditions -  °F | °C
As of 4:56 PM on Saturday 22 Nov 2014 (Local Time) from KLWS Reporting Station
Overcast Overcast  
Wind Chill: 35°   Ceiling: 3300
Heat Index: 43°   Visibility: 10mi
Dew Point: 35°   Wind: 16mph
Humidity: 74%   Direction: 300°WNW
Pressure: 29.82"   Gusts: NA
Location:  46.13°N, 117.13°W
Report Text: KLWS 230056Z AUTO 30014KT 10SM BKN033 OVC042 06/02 A2982 RMK AO2 RAB20E41 SLP104 P0000 T00610017
Loading
Personal Weather Stations






























Interactive Weather Map New forecast layout! Learn more

10-Day Weather Forecast

Advertisements
Track Severe Weather on mobile